Time;durP1;ratioP1;P1;durP2;ratioP2;P2;SDS_P1;SDS_P2;PMS_P1;PMS_P2;Temp;Humidity;BMP_temperature;BMP_pressure;BME280_temperature;BME280_humidity;BME280_pressure;Samples;Min_cycle;Max_cycle;Signal;HPM_P1;HPM_P2
2023/09/18 00:00:52;;;;;;;31.40;27.38;;;17.50;99.90;;;;;;4995334;28;94389;-34
2023/09/18 00:03:24;;;;;;;31.95;28.58;;;17.50;99.90;;;;;;4984614;28;95175;-34
2023/09/18 00:05:51;;;;;;;34.35;30.77;;;17.60;99.90;;;;;;4990891;28;95083;-34
2023/09/18 00:08:19;;;;;;;34.53;30.92;;;17.60;99.90;;;;;;4984769;28;92619;-38
2023/09/18 00:10:49;;;;;;;;;;;17.60;99.90;;;;;;4976966;28;94314;-33
2023/09/18 00:13:14;;;;;;;30.83;27.67;;;17.50;99.90;;;;;;4977465;28;94254;-33
2023/09/18 00:15:41;;;;;;;32.58;29.35;;;17.50;99.90;;;;;;4977104;28;94670;-36
2023/09/18 00:18:07;;;;;;;32.78;28.77;;;17.50;99.90;;;;;;4977005;28;94800;-35
2023/09/18 00:20:32;;;;;;;52.80;26.70;;;17.50;99.90;;;;;;4977087;28;93967;-34
2023/09/18 00:22:58;;;;;;;54.35;24.08;;;17.30;99.90;;;;;;4978772;28;94751;-38
2023/09/18 00:25:23;;;;;;;104.65;20.08;;;17.20;99.90;;;;;;4980158;28;94406;-35
2023/09/18 00:27:49;;;;;;;123.55;22.52;;;17.10;99.90;;;;;;4979322;28;94498;-33
2023/09/18 00:30:15;;;;;;;70.20;17.90;;;17.00;99.90;;;;;;4962062;28;94156;-36
2023/09/18 00:32:41;;;;;;;54.92;16.33;;;17.00;99.90;;;;;;4978299;28;94879;-37
2023/09/18 00:35:07;;;;;;;41.38;17.45;;;17.00;99.90;;;;;;4979357;28;94964;-35
2023/09/18 00:37:32;;;;;;;23.13;17.52;;;16.90;99.90;;;;;;4979238;28;93329;-35
2023/09/18 00:39:58;;;;;;;28.30;20.50;;;16.90;99.90;;;;;;4979944;28;94473;-35
2023/09/18 00:42:24;;;;;;;17.77;16.25;;;17.00;99.90;;;;;;4978866;28;94903;-34
2023/09/18 00:44:50;;;;;;;17.08;15.52;;;16.90;99.90;;;;;;4979966;28;93481;-34
2023/09/18 00:47:16;;;;;;;24.50;22.30;;;16.90;99.90;;;;;;4978485;28;94214;-34
2023/09/18 00:49:46;;;;;;;27.90;25.10;;;17.00;99.90;;;;;;4979334;28;94611;-37
2023/09/18 00:52:12;;;;;;;37.08;28.50;;;17.00;99.90;;;;;;4978182;28;95887;-35
2023/09/18 00:54:40;;;;;;;32.40;28.88;;;17.00;99.90;;;;;;4979002;28;94638;-37
2023/09/18 00:57:06;;;;;;;30.45;27.38;;;17.00;99.90;;;;;;4979675;28;92886;-33
2023/09/18 00:59:32;;;;;;;29.38;26.58;;;17.10;99.90;;;;;;4979761;28;94255;-34
2023/09/18 01:01:58;;;;;;;27.63;24.92;;;17.10;99.90;;;;;;4979426;28;93616;-34
2023/09/18 01:04:25;;;;;;;27.17;24.38;;;17.10;99.90;;;;;;4983056;28;95509;-39
2023/09/18 01:06:52;;;;;;;31.52;28.33;;;17.10;99.90;;;;;;4987055;28;94701;-34
2023/09/18 01:09:19;;;;;;;31.85;27.50;;;17.10;99.90;;;;;;4990975;28;92370;-37
2023/09/18 01:11:50;;;;;;;28.63;25.42;;;17.10;99.90;;;;;;4977938;28;94762;-35
2023/09/18 01:14:39;;;;;;;30.70;27.50;;;17.20;99.90;;;;;;4982560;28;95117;-35
2023/09/18 01:17:10;;;;;;;26.50;23.80;;;17.10;99.90;;;;;;4978575;28;95401;-34
2023/09/18 01:19:45;;;;;;;23.60;21.33;;;17.10;99.90;;;;;;4997547;28;93226;-33
2023/09/18 01:22:12;;;;;;;24.52;21.80;;;17.10;99.90;;;;;;4980437;28;94223;-33
2023/09/18 01:24:39;;;;;;;28.88;26.05;;;17.00;99.90;;;;;;4987541;28;94945;-38
2023/09/18 01:27:07;;;;;;;24.42;21.75;;;17.00;99.90;;;;;;4983797;28;94397;-35
2023/09/18 01:29:33;;;;;;;25.60;23.00;;;16.90;99.90;;;;;;4997675;28;93598;-34
2023/09/18 01:31:58;;;;;;;25.05;22.75;;;16.90;99.90;;;;;;4996574;28;95360;-34
2023/09/18 01:34:36;;;;;;;29.33;26.35;;;16.90;99.90;;;;;;4996391;28;94022;-33
2023/09/18 01:37:05;;;;;;;29.98;26.88;;;16.90;99.90;;;;;;4996420;28;92150;-36
2023/09/18 01:39:32;;;;;;;30.23;27.35;;;17.00;99.90;;;;;;4997065;28;92427;-35
2023/09/18 01:42:00;;;;;;;35.25;31.45;;;17.00;99.90;;;;;;4995927;28;95747;-35
2023/09/18 01:44:26;;;;;;;32.53;27.20;;;17.00;99.90;;;;;;4995872;28;95787;-37
2023/09/18 01:46:55;;;;;;;30.13;27.05;;;17.00;99.90;;;;;;4996871;28;94628;-36
2023/09/18 01:49:29;;;;;;;32.42;27.67;;;17.00;99.90;;;;;;4996228;28;93339;-37
2023/09/18 01:51:55;;;;;;;28.08;25.05;;;17.00;99.90;;;;;;4997265;28;94124;-36
2023/09/18 01:54:21;;;;;;;31.02;27.83;;;17.00;99.90;;;;;;4995834;28;94213;-33
2023/09/18 01:56:47;;;;;;;33.42;28.90;;;17.00;99.90;;;;;;4997911;28;93954;-35
2023/09/18 01:59:12;;;;;;;33.38;29.15;;;17.00;99.90;;;;;;4996487;28;93375;-34
2023/09/18 02:01:38;;;;;;;29.88;26.70;;;17.00;99.90;;;;;;4996526;28;94014;-36
2023/09/18 02:04:05;;;;;;;29.63;26.60;;;17.00;99.90;;;;;;4980506;28;94678;-35
2023/09/18 02:06:30;;;;;;;30.80;27.67;;;17.00;99.90;;;;;;4977566;28;94139;-35
2023/09/18 02:08:56;;;;;;;31.73;28.58;;;17.00;99.90;;;;;;4975724;28;94345;-33
2023/09/18 02:11:21;;;;;;;31.80;28.70;;;17.00;99.90;;;;;;4986179;28;94869;-32
2023/09/18 02:13:47;;;;;;;33.53;28.52;;;17.10;99.90;;;;;;4981138;28;93563;-34
2023/09/18 02:16:13;;;;;;;28.83;25.92;;;17.00;99.90;;;;;;4977117;28;94140;-34
2023/09/18 02:18:38;;;;;;;29.33;25.73;;;17.00;99.90;;;;;;4990042;28;94388;-35
2023/09/18 02:21:04;;;;;;;29.27;26.33;;;17.10;99.90;;;;;;4976390;28;94775;-35
2023/09/18 02:23:29;;;;;;;29.15;26.05;;;17.00;99.90;;;;;;4976839;28;94670;-34
2023/09/18 02:25:59;;;;;;;30.63;27.10;;;17.00;99.90;;;;;;4976153;28;94287;-35
2023/09/18 02:28:25;;;;;;;27.45;24.65;;;17.00;99.90;;;;;;4976747;28;92525;-36
2023/09/18 02:30:51;;;;;;;31.45;27.95;;;17.10;99.90;;;;;;4976710;28;95294;-33
2023/09/18 02:33:17;;;;;;;30.98;27.83;;;17.10;99.90;;;;;;4962623;28;97498;-40
2023/09/18 02:35:43;;;;;;;29.15;26.05;;;17.10;99.90;;;;;;4957427;28;93955;-34
2023/09/18 02:38:09;;;;;;;27.80;24.58;;;17.10;99.90;;;;;;4958017;28;93890;-37
2023/09/18 02:40:34;;;;;;;29.40;26.33;;;17.00;99.90;;;;;;4956325;28;94783;-34
2023/09/18 02:43:02;;;;;;;27.60;24.02;;;17.00;99.90;;;;;;4957366;28;94963;-37
2023/09/18 02:45:27;;;;;;;26.60;23.80;;;17.00;99.90;;;;;;4955880;28;92235;-35
2023/09/18 02:47:53;;;;;;;28.98;25.85;;;16.90;99.90;;;;;;4956715;28;93349;-32
2023/09/18 02:50:19;;;;;;;28.98;25.73;;;16.90;99.90;;;;;;4956871;28;95539;-34
2023/09/18 02:52:44;;;;;;;28.50;25.60;;;17.00;99.90;;;;;;4957012;28;93928;-33
2023/09/18 02:55:10;;;;;;;27.60;24.75;;;17.00;99.90;;;;;;4956398;28;95241;-36
2023/09/18 02:57:36;;;;;;;28.42;25.63;;;17.00;99.90;;;;;;4957852;28;92748;-34
2023/09/18 03:00:03;;;;;;;24.02;21.80;;;17.00;99.90;;;;;;4955995;28;93841;-34
2023/09/18 03:02:29;;;;;;;25.92;23.33;;;16.90;99.90;;;;;;4957238;28;95578;-35
2023/09/18 03:04:55;;;;;;;26.73;24.02;;;16.90;99.90;;;;;;4956044;28;92632;-35
2023/09/18 03:07:22;;;;;;;25.38;22.70;;;17.00;99.90;;;;;;4957010;28;93791;-33
2023/09/18 03:09:47;;;;;;;24.85;22.38;;;17.00;99.90;;;;;;4964885;28;95878;-33
2023/09/18 03:12:13;;;;;;;24.52;21.98;;;17.00;99.90;;;;;;4975378;28;94737;-34
2023/09/18 03:14:39;;;;;;;23.58;21.25;;;17.00;99.90;;;;;;4975485;28;92101;-34
2023/09/18 03:17:05;;;;;;;24.17;21.88;;;17.00;99.90;;;;;;4975490;28;94335;-34
2023/09/18 03:19:30;;;;;;;25.00;22.23;;;17.00;99.90;;;;;;4974443;28;95453;-38
2023/09/18 03:21:56;;;;;;;25.80;23.13;;;16.90;99.90;;;;;;4975457;28;95548;-34
2023/09/18 03:24:22;;;;;;;26.15;22.67;;;17.00;99.90;;;;;;4975718;28;93910;-35
2023/09/18 03:26:49;;;;;;;25.10;22.50;;;17.00;99.90;;;;;;4975374;28;93463;-36
2023/09/18 03:29:14;;;;;;;24.90;22.27;;;17.00;99.90;;;;;;4972772;28;94606;-38
2023/09/18 03:31:40;;;;;;;24.52;22.13;;;17.00;99.90;;;;;;4976112;28;94477;-33
2023/09/18 03:34:06;;;;;;;21.60;19.45;;;17.00;99.90;;;;;;4995290;28;94693;-37
2023/09/18 03:36:32;;;;;;;24.75;22.35;;;17.00;99.90;;;;;;4995789;28;93109;-33
2023/09/18 03:38:58;;;;;;;23.25;20.95;;;17.00;99.90;;;;;;4994390;28;94363;-36
2023/09/18 03:41:23;;;;;;;24.48;22.08;;;17.00;99.90;;;;;;4993744;28;95807;-33
2023/09/18 03:43:50;;;;;;;21.13;18.98;;;17.00;99.90;;;;;;4995282;28;95216;-34
2023/09/18 03:46:16;;;;;;;27.08;21.73;;;17.00;99.90;;;;;;4994097;28;94223;-35
2023/09/18 03:48:41;;;;;;;24.52;21.95;;;17.10;99.90;;;;;;4995143;28;94610;-35
2023/09/18 03:51:08;;;;;;;23.80;21.40;;;17.00;99.90;;;;;;4993779;28;94651;-34
2023/09/18 03:53:34;;;;;;;22.98;20.80;;;17.00;99.90;;;;;;4995149;28;94342;-34
2023/09/18 03:56:00;;;;;;;25.42;19.60;;;17.00;99.90;;;;;;4994648;28;93135;-34
2023/09/18 03:58:26;;;;;;;20.42;18.33;;;17.00;99.90;;;;;;4997908;28;94685;-35
2023/09/18 04:00:52;;;;;;;20.33;18.23;;;17.10;99.90;;;;;;4996190;28;95304;-38
2023/09/18 04:03:18;;;;;;;21.55;19.45;;;17.20;99.90;;;;;;4988733;28;93283;-36
2023/09/18 04:05:44;;;;;;;21.80;19.55;;;17.20;99.90;;;;;;4978713;28;93544;-36
2023/09/18 04:08:10;;;;;;;22.63;19.95;;;17.20;99.90;;;;;;4978538;28;94445;-35
2023/09/18 04:10:36;;;;;;;22.38;19.85;;;17.20;99.90;;;;;;4978786;28;95536;-34
2023/09/18 04:13:02;;;;;;;19.85;17.90;;;17.30;99.90;;;;;;4979035;28;93079;-37
2023/09/18 04:15:30;;;;;;;21.15;19.08;;;17.30;99.90;;;;;;4961016;28;94586;-36
2023/09/18 04:17:56;;;;;;;20.65;18.42;;;17.40;99.90;;;;;;4978161;28;94209;-36
2023/09/18 04:20:22;;;;;;;21.25;19.08;;;17.30;99.90;;;;;;4978484;28;96309;-34
2023/09/18 04:23:19;;;;;;;22.35;18.17;;;17.30;99.90;;;;;;4978765;28;94641;-35
2023/09/18 04:25:45;;;;;;;20.65;18.48;;;17.30;99.90;;;;;;4979356;28;92506;-36
2023/09/18 04:28:19;;;;;;;21.60;18.77;;;17.30;99.90;;;;;;4978178;28;94621;-33
2023/09/18 04:30:45;;;;;;;21.52;18.88;;;17.40;99.90;;;;;;4978887;28;94477;-33
2023/09/18 04:33:12;;;;;;;18.58;16.77;;;17.40;99.90;;;;;;4977362;28;94707;-37
2023/09/18 04:35:41;;;;;;;18.85;16.85;;;17.30;99.90;;;;;;4978712;28;94981;-36
2023/09/18 04:38:10;;;;;;;19.05;16.77;;;17.30;99.90;;;;;;4993047;28;95712;-34
2023/09/18 04:40:37;;;;;;;19.95;17.95;;;17.30;99.90;;;;;;4997818;28;94413;-33
2023/09/18 04:43:04;;;;;;;19.63;17.73;;;17.30;99.90;;;;;;4998164;28;94756;-34
2023/09/18 04:45:31;;;;;;;20.70;18.30;;;17.40;99.90;;;;;;4997830;28;94107;-34
2023/09/18 04:47:57;;;;;;;21.00;18.80;;;17.40;99.90;;;;;;4996907;28;94501;-34
2023/09/18 04:50:22;;;;;;;19.63;17.65;;;17.30;99.90;;;;;;4998421;28;95837;-35
2023/09/18 04:52:50;;;;;;;23.77;17.75;;;17.30;99.90;;;;;;4981895;28;93273;-34
2023/09/18 04:55:16;;;;;;;18.98;17.17;;;17.30;99.90;;;;;;4978101;28;93339;-34
2023/09/18 04:57:42;;;;;;;18.88;16.65;;;17.30;99.90;;;;;;4977339;28;95956;-34
2023/09/18 05:00:08;;;;;;;21.05;16.52;;;17.30;99.90;;;;;;4978383;28;95525;-35
2023/09/18 05:02:35;;;;;;;18.65;16.67;;;17.20;99.90;;;;;;4977744;28;93046;-35
2023/09/18 05:05:01;;;;;;;17.92;16.30;;;17.20;99.90;;;;;;4987094;28;93210;-33
2023/09/18 05:07:26;;;;;;;19.35;17.33;;;17.30;99.90;;;;;;4992200;28;95152;-35
2023/09/18 05:09:52;;;;;;;19.95;17.38;;;17.30;99.90;;;;;;4990283;28;94567;-37
2023/09/18 05:12:18;;;;;;;19.85;17.92;;;17.30;99.90;;;;;;4989720;28;92148;-39
2023/09/18 05:14:44;;;;;;;18.52;15.85;;;17.30;99.90;;;;;;4993580;28;93565;-34
2023/09/18 05:17:16;;;;;;;16.17;14.32;;;17.30;99.90;;;;;;4973656;28;94279;-33
2023/09/18 05:19:43;;;;;;;15.80;14.25;;;17.40;99.90;;;;;;4974795;28;94564;-36
2023/09/18 05:22:10;;;;;;;16.08;14.38;;;17.40;99.90;;;;;;4989868;28;93708;-35
2023/09/18 05:24:38;;;;;;;15.75;14.15;;;17.50;99.90;;;;;;4993220;28;93253;-32
2023/09/18 05:27:07;;;;;;;19.45;14.55;;;17.50;99.90;;;;;;4988963;28;94474;-38
2023/09/18 05:29:35;;;;;;;15.82;14.18;;;17.60;99.90;;;;;;4992962;28;94752;-37
2023/09/18 05:32:02;;;;;;;15.93;13.50;;;17.70;99.90;;;;;;5029228;22;94522;-32
2023/09/18 05:34:27;;;;;;;16.30;14.10;;;17.70;99.90;;;;;;4990478;28;93172;-35
2023/09/18 05:36:53;;;;;;;18.80;14.00;;;17.70;99.90;;;;;;4980152;28;95743;-35
2023/09/18 05:39:19;;;;;;;15.68;14.05;;;17.70;99.90;;;;;;4994548;28;95542;-35
2023/09/18 05:41:45;;;;;;;15.60;13.93;;;17.80;99.90;;;;;;4977101;28;92896;-38
2023/09/18 05:44:11;;;;;;;15.65;13.38;;;17.80;99.90;;;;;;4975741;28;93581;-33
2023/09/18 05:46:36;;;;;;;15.40;13.55;;;17.80;99.90;;;;;;4958185;28;96422;-35
2023/09/18 05:49:03;;;;;;;15.38;13.23;;;17.80;99.90;;;;;;4975934;28;95988;-35
2023/09/18 05:51:30;;;;;;;15.50;14.00;;;17.80;99.90;;;;;;4977987;28;93371;-34
2023/09/18 05:53:56;;;;;;;16.77;12.43;;;17.80;99.90;;;;;;4974808;28;92201;-36
2023/09/18 05:56:23;;;;;;;14.07;11.70;;;17.80;99.90;;;;;;4976214;28;94795;-35
2023/09/18 05:58:49;;;;;;;14.68;13.15;;;17.90;99.90;;;;;;4971850;28;94367;-38
2023/09/18 06:01:15;;;;;;;15.50;13.75;;;17.90;99.90;;;;;;4974077;28;94453;-36
2023/09/18 06:03:40;;;;;;;14.02;12.57;;;17.90;99.90;;;;;;4974805;28;92422;-37
2023/09/18 06:06:06;;;;;;;14.70;12.75;;;17.90;99.90;;;;;;4987135;28;94734;-36
2023/09/18 06:08:33;;;;;;;16.63;12.98;;;17.90;99.90;;;;;;4974166;28;94948;-34
2023/09/18 06:10:58;;;;;;;13.07;11.85;;;18.00;99.90;;;;;;4992303;28;93985;-34
2023/09/18 06:13:25;;;;;;;13.23;11.93;;;18.00;99.90;;;;;;4994856;28;94304;-33
2023/09/18 06:15:54;;;;;;;11.07;9.98;;;18.10;99.90;;;;;;4978900;28;96293;-34
2023/09/18 06:18:22;;;;;;;14.13;11.95;;;18.20;99.90;;;;;;4982634;28;94550;-34
2023/09/18 06:20:48;;;;;;;16.48;12.10;;;18.30;99.90;;;;;;4977020;28;92623;-38
2023/09/18 06:23:15;;;;;;;12.82;11.30;;;18.30;99.90;;;;;;4978350;28;92978;-36
2023/09/18 06:25:41;;;;;;;14.43;10.65;;;18.30;99.90;;;;;;4976722;28;95039;-35
2023/09/18 06:28:07;;;;;;;11.27;9.57;;;18.40;99.90;;;;;;4977637;28;94155;-36
2023/09/18 06:30:34;;;;;;;12.45;10.38;;;18.40;99.90;;;;;;4975840;28;94042;-36
2023/09/18 06:33:00;;;;;;;12.10;9.98;;;18.50;99.90;;;;;;4977577;28;93621;-35
2023/09/18 06:35:26;;;;;;;17.58;10.10;;;18.50;99.90;;;;;;4975007;28;96019;-33
2023/09/18 06:37:54;;;;;;;14.23;10.35;;;18.50;99.90;;;;;;4977049;28;95910;-36
2023/09/18 06:40:20;;;;;;;17.85;12.00;;;18.60;99.90;;;;;;4975156;28;92828;-32
2023/09/18 06:42:45;;;;;;;14.30;10.43;;;18.50;99.90;;;;;;4976460;28;92729;-35
2023/09/18 06:45:12;;;;;;;12.93;11.63;;;18.50;99.90;;;;;;4987034;28;94784;-35
2023/09/18 06:47:40;;;;;;;12.23;10.98;;;18.50;99.90;;;;;;4994677;28;94269;-35
2023/09/18 06:50:06;;;;;;;12.85;10.85;;;18.50;99.90;;;;;;4962951;28;93222;-34
2023/09/18 06:52:32;;;;;;;14.95;11.23;;;18.50;99.90;;;;;;4986879;28;92294;-36
2023/09/18 06:54:58;;;;;;;17.13;9.93;;;18.50;99.90;;;;;;4966636;28;94654;-37
2023/09/18 06:57:24;;;;;;;11.07;10.00;;;18.50;99.90;;;;;;4974768;28;94645;-36
2023/09/18 06:59:50;;;;;;;13.43;11.05;;;18.60;99.90;;;;;;4987612;28;95461;-34
2023/09/18 07:02:16;;;;;;;14.93;11.25;;;18.60;99.90;;;;;;4991095;28;93300;-35
2023/09/18 07:04:45;;;;;;;14.70;10.55;;;18.60;99.90;;;;;;4980599;28;94736;-36
2023/09/18 07:07:14;;;;;;;13.40;11.23;;;18.60;99.90;;;;;;4978503;28;94354;-35
2023/09/18 07:09:41;;;;;;;13.73;11.70;;;18.60;99.90;;;;;;4993374;28;93431;-36
2023/09/18 07:12:09;;;;;;;16.88;12.32;;;18.70;99.90;;;;;;4992714;28;94906;-36
2023/09/18 07:14:35;;;;;;;13.55;12.10;;;18.70;99.90;;;;;;4992947;28;94001;-35
2023/09/18 07:17:02;;;;;;;16.08;11.23;;;18.70;99.90;;;;;;4992191;28;95682;-35
2023/09/18 07:19:27;;;;;;;14.82;13.18;;;18.70;99.90;;;;;;4992600;28;93974;-34
2023/09/18 07:21:53;;;;;;;14.18;11.50;;;18.70;99.90;;;;;;4972851;28;92854;-35
2023/09/18 07:24:20;;;;;;;15.32;12.52;;;18.70;99.90;;;;;;4991950;28;95705;-34
2023/09/18 07:26:49;;;;;;;16.40;13.07;;;18.60;99.90;;;;;;4992329;28;95346;-35
2023/09/18 07:29:15;;;;;;;14.00;12.60;;;18.60;99.90;;;;;;4992678;28;93193;-34
2023/09/18 07:31:44;;;;;;;13.13;11.82;;;18.60;99.90;;;;;;4995254;28;93167;-37
2023/09/18 07:34:11;;;;;;;15.48;12.85;;;18.60;99.90;;;;;;4996885;28;94728;-34
2023/09/18 07:36:36;;;;;;;18.17;12.90;;;18.60;99.90;;;;;;4979452;28;94107;-36
2023/09/18 07:39:04;;;;;;;14.20;12.23;;;18.60;99.90;;;;;;4977707;28;94269;-32
2023/09/18 07:41:30;;;;;;;18.42;12.55;;;18.60;99.90;;;;;;4994166;28;91994;-34
2023/09/18 07:43:58;;;;;;;15.18;12.50;;;18.70;99.90;;;;;;4995361;28;94627;-37
2023/09/18 07:46:24;;;;;;;15.50;13.90;;;18.80;99.90;;;;;;4995974;28;94806;-35
2023/09/18 07:48:49;;;;;;;13.98;12.60;;;18.80;99.90;;;;;;4996504;28;93843;-35
2023/09/18 07:51:16;;;;;;;14.63;12.38;;;18.80;99.90;;;;;;4994686;28;93058;-35
2023/09/18 07:53:42;;;;;;;18.63;13.40;;;18.80;99.90;;;;;;4996202;28;94599;-35
2023/09/18 07:56:08;;;;;;;14.10;12.63;;;18.90;99.90;;;;;;4996318;28;95349;-37
2023/09/18 07:58:38;;;;;;;17.42;13.68;;;18.90;99.90;;;;;;4995299;28;94078;-33
2023/09/18 08:01:05;;;;;;;15.05;12.60;;;19.00;99.90;;;;;;4995708;28;94853;-35
2023/09/18 08:03:31;;;;;;;13.90;12.50;;;19.00;99.90;;;;;;4985369;28;94731;-36
2023/09/18 08:05:57;;;;;;;16.20;13.02;;;19.00;99.90;;;;;;4992102;28;95153;-32
2023/09/18 08:08:24;;;;;;;15.90;14.27;;;19.10;99.90;;;;;;4997020;28;94174;-34
2023/09/18 08:10:51;;;;;;;17.20;14.50;;;19.10;99.90;;;;;;4981887;28;93627;-33
2023/09/18 08:13:17;;;;;;;15.27;13.05;;;;;;;;;;4994825;28;95666;-34
2023/09/18 08:15:46;;;;;;;16.92;14.65;;;;;;;;;;4978338;28;95233;-36
2023/09/18 08:18:14;;;;;;;17.30;13.70;;;;;;;;;;4977386;28;94413;-36
2023/09/18 08:20:43;;;;;;;16.50;14.88;;;;;;;;;;4976734;28;94604;-34
2023/09/18 08:23:10;;;;;;;17.92;15.35;;;;;;;;;;4977361;28;94496;-32
2023/09/18 08:25:36;;;;;;;16.63;15.00;;;19.40;99.90;;;;;;4977000;28;94287;-33
2023/09/18 08:28:06;;;;;;;15.75;14.13;;;;;;;;;;4976582;28;94977;-36
2023/09/18 08:30:32;;;;;;;15.45;13.95;;;19.30;99.90;;;;;;4977577;28;93063;-34
2023/09/18 08:32:58;;;;;;;19.50;15.10;;;19.40;99.90;;;;;;4976064;28;94054;-33
2023/09/18 08:35:27;;;;;;;15.57;13.98;;;19.30;99.90;;;;;;4975519;28;94787;-35
2023/09/18 08:37:53;;;;;;;14.07;12.65;;;19.30;99.90;;;;;;4975590;28;94758;-37
2023/09/18 08:40:19;;;;;;;14.95;12.50;;;19.40;99.90;;;;;;4995660;28;92293;-35
2023/09/18 08:42:47;;;;;;;12.68;11.50;;;19.40;99.90;;;;;;4981330;28;96554;-36
2023/09/18 08:45:21;;;;;;;15.07;13.57;;;19.40;99.90;;;;;;4994814;28;94416;-34
2023/09/18 08:47:47;;;;;;;15.60;14.02;;;19.40;99.90;;;;;;4996054;28;94034;-37
2023/09/18 08:50:14;;;;;;;16.40;13.07;;;19.40;99.90;;;;;;4987830;28;94189;-34
2023/09/18 08:52:41;;;;;;;16.17;13.95;;;19.30;99.90;;;;;;4975756;28;94497;-34
2023/09/18 08:55:07;;;;;;;17.15;13.20;;;19.40;99.90;;;;;;4976430;28;94229;-36
2023/09/18 08:57:35;;;;;;;16.52;14.00;;;19.40;99.90;;;;;;4976148;28;93712;-34
2023/09/18 09:00:06;;;;;;;;;;;19.40;99.90;;;;;;4976356;28;93199;-32
2023/09/18 09:02:33;;;;;;;17.95;14.77;;;19.40;99.90;;;;;;4977113;28;96007;-33
2023/09/18 09:04:58;;;;;;;16.83;15.23;;;19.40;99.90;;;;;;4984504;28;95722;-36
2023/09/18 09:07:26;;;;;;;18.02;14.95;;;19.40;99.90;;;;;;4977375;28;94905;-33
2023/09/18 09:09:51;;;;;;;20.10;15.23;;;19.40;99.90;;;;;;4996154;28;94297;-34
2023/09/18 09:13:00;;;;;;;19.48;15.10;;;19.50;99.90;;;;;;4994056;28;95082;-34
2023/09/18 09:15:28;;;;;;;16.42;13.13;;;19.50;99.90;;;;;;4994590;28;94831;-35
2023/09/18 09:18:08;;;;;;;16.05;14.40;;;19.50;99.90;;;;;;4995442;28;93696;-36
2023/09/18 09:20:39;;;;;;;15.80;14.15;;;19.50;99.90;;;;;;4994616;28;93290;-33
2023/09/18 09:23:09;;;;;;;18.88;13.02;;;19.60;99.90;;;;;;4995181;28;94319;-34
2023/09/18 09:25:35;;;;;;;17.48;14.18;;;19.60;99.90;;;;;;4994950;28;94575;-35
2023/09/18 09:28:04;;;;;;;17.05;13.70;;;19.70;99.90;;;;;;4975336;28;93184;-37
2023/09/18 09:30:31;;;;;;;26.48;13.98;;;19.70;99.90;;;;;;4974282;28;93874;-37
2023/09/18 09:32:58;;;;;;;18.83;15.15;;;19.70;99.90;;;;;;4974326;28;94606;-36
2023/09/18 09:35:29;;;;;;;15.90;13.60;;;19.80;99.90;;;;;;4988933;28;94616;-36
2023/09/18 09:37:58;;;;;;;17.85;12.90;;;19.90;99.90;;;;;;4995150;28;92497;-36
2023/09/18 09:40:25;;;;;;;15.77;14.07;;;19.90;99.90;;;;;;4994016;28;94826;-35
2023/09/18 09:42:53;;;;;;;14.30;12.73;;;19.90;99.90;;;;;;4984569;28;95101;-34
2023/09/18 09:45:19;;;;;;;;;;;19.90;99.90;;;;;;4979300;28;94637;-35
2023/09/18 09:47:45;;;;;;;16.52;12.73;;;20.00;99.90;;;;;;4996599;28;92581;-33
2023/09/18 09:50:13;;;;;;;13.20;11.85;;;20.10;99.90;;;;;;4976249;28;93924;-36
2023/09/18 09:52:50;;;;;;;13.90;12.48;;;20.20;99.90;;;;;;4973574;28;96745;-35
2023/09/18 09:55:28;;;;;;;15.35;13.60;;;20.30;99.90;;;;;;4974336;28;94929;-37
2023/09/18 09:58:02;;;;;;;15.13;11.93;;;20.40;99.90;;;;;;4974822;28;94654;-34
2023/09/18 10:00:42;;;;;;;13.45;11.32;;;20.50;99.90;;;;;;4963024;28;92988;-37
2023/09/18 10:03:10;;;;;;;11.77;10.77;;;20.60;99.90;;;;;;4974132;28;94382;-36
2023/09/18 10:05:38;;;;;;;14.25;9.10;;;20.80;99.90;;;;;;4988320;28;94452;-35
2023/09/18 10:08:12;;;;;;;12.77;10.80;;;20.70;99.90;;;;;;4976993;28;93189;-35
2023/09/18 10:10:47;;;;;;;9.77;8.77;;;20.70;99.90;;;;;;4994448;28;93576;-34
2023/09/18 10:13:22;;;;;;;13.20;10.05;;;20.60;99.90;;;;;;4993836;28;94619;-35
2023/09/18 10:15:50;;;;;;;9.60;8.73;;;20.70;99.90;;;;;;4993334;28;94732;-37
2023/09/18 10:18:56;;;;;;;10.95;9.85;;;20.60;99.90;;;;;;4993636;28;95579;-32
2023/09/18 10:21:49;;;;;;;8.63;7.80;;;20.70;99.90;;;;;;4964473;28;93913;-33
2023/09/18 10:24:30;;;;;;;9.07;8.18;;;20.70;99.90;;;;;;4993574;28;95156;-35
2023/09/18 10:27:03;;;;;;;9.27;8.25;;;20.80;99.90;;;;;;4992774;28;93992;-34
2023/09/18 10:29:30;;;;;;;12.38;8.73;;;20.90;99.90;;;;;;4995434;28;92856;-35
2023/09/18 10:31:56;;;;;;;9.10;7.95;;;20.90;99.90;;;;;;4975129;28;94887;-36
2023/09/18 10:34:23;;;;;;;9.25;8.32;;;21.00;99.90;;;;;;4983108;28;94862;-34
2023/09/18 10:36:52;;;;;;;8.23;7.37;;;21.00;99.90;;;;;;4971952;28;96015;-37
2023/09/18 10:39:19;;;;;;;11.15;6.38;;;21.00;99.90;;;;;;4983197;28;93261;-34
2023/09/18 10:41:51;;;;;;;13.30;8.40;;;21.20;99.90;;;;;;4980230;28;92852;-33
2023/09/18 10:44:17;;;;;;;7.95;7.20;;;21.20;99.90;;;;;;4982916;28;96055;-34
2023/09/18 10:46:48;;;;;;;7.95;7.13;;;21.20;99.90;;;;;;4979493;28;94695;-35
2023/09/18 10:49:15;;;;;;;7.57;6.65;;;21.30;99.90;;;;;;4980423;28;92207;-36
2023/09/18 10:51:42;;;;;;;7.43;6.13;;;21.40;99.90;;;;;;4973986;28;94237;-33
2023/09/18 10:54:09;;;;;;;8.60;6.78;;;21.40;99.90;;;;;;4979988;28;95355;-35
2023/09/18 10:56:34;;;;;;;10.07;6.15;;;21.50;99.90;;;;;;4957783;28;94213;-35
2023/09/18 10:59:02;;;;;;;7.03;6.38;;;21.40;99.90;;;;;;4974120;28;94230;-35
2023/09/18 11:01:30;;;;;;;6.88;6.20;;;21.60;99.90;;;;;;4979950;28;93656;-34
2023/09/18 11:04:01;;;;;;;6.18;5.60;;;21.60;99.90;;;;;;4973482;28;94235;-34
2023/09/18 11:06:27;;;;;;;8.18;5.97;;;21.70;99.90;;;;;;4981264;28;94505;-35
2023/09/18 11:09:04;;;;;;;8.30;6.60;;;22.00;99.90;;;;;;4979240;28;94429;-38
2023/09/18 11:11:32;;;;;;;8.60;5.72;;;21.90;99.90;;;;;;4973310;28;93610;-34
2023/09/18 11:13:59;;;;;;;9.85;5.60;;;22.00;99.90;;;;;;4974125;28;94077;-36
2023/09/18 11:16:28;;;;;;;5.68;5.00;;;22.00;99.90;;;;;;4974770;28;94273;-37
2023/09/18 11:19:00;;;;;;;4.88;4.47;;;22.20;99.90;;;;;;4973219;28;94326;-36
2023/09/18 11:21:30;;;;;;;6.32;5.50;;;22.20;99.90;;;;;;4973983;28;93043;-35
2023/09/18 11:24:22;;;;;;;5.35;4.85;;;22.20;99.90;;;;;;4973283;28;93801;-36
2023/09/18 11:26:49;;;;;;;6.53;4.43;;;22.10;99.90;;;;;;4974427;28;95199;-34
2023/09/18 11:29:23;;;;;;;4.70;4.03;;;22.00;99.90;;;;;;4974601;28;92753;-34
2023/09/18 11:31:54;;;;;;;4.75;4.10;;;21.90;99.90;;;;;;4973489;28;94353;-36
2023/09/18 11:34:23;;;;;;;7.68;5.25;;;21.70;99.90;;;;;;4972226;28;96935;-35
2023/09/18 11:36:50;;;;;;;4.40;4.03;;;21.70;99.90;;;;;;4972828;28;96396;-33
2023/09/18 11:39:36;;;;;;;7.57;5.13;;;21.70;99.90;;;;;;4974518;28;94481;-36
2023/09/18 11:42:13;;;;;;;4.82;4.18;;;21.70;99.90;;;;;;4961922;28;92387;-34
2023/09/18 11:44:42;;;;;;;6.17;4.53;;;21.70;99.90;;;;;;4976040;28;93486;-36
2023/09/18 11:47:17;;;;;;;5.57;4.18;;;21.90;99.90;;;;;;4974480;28;95144;-35
2023/09/18 11:49:54;;;;;;;4.22;3.90;;;22.30;99.90;;;;;;4977129;28;93036;-35
2023/09/18 11:52:24;;;;;;;5.38;4.53;;;22.30;99.90;;;;;;4976648;28;92330;-34
2023/09/18 11:54:50;;;;;;;4.68;4.28;;;22.40;99.90;;;;;;4975257;28;94141;-35
2023/09/18 11:57:18;;;;;;;4.78;3.47;;;22.50;99.90;;;;;;4976293;28;93359;-33
2023/09/18 11:59:46;;;;;;;5.93;3.97;;;22.60;99.90;;;;;;4973030;28;93135;-37
2023/09/18 12:02:27;;;;;;;;;;;22.50;99.90;;;;;;4975409;28;94545;-34
2023/09/18 12:04:54;;;;;;;4.75;3.75;;;22.60;99.90;;;;;;4982787;28;95733;-33
2023/09/18 12:07:20;;;;;;;4.78;3.70;;;22.40;99.90;;;;;;4978284;28;94795;-33
2023/09/18 12:09:46;;;;;;;7.03;3.90;;;22.30;99.90;;;;;;4991071;28;93658;-37
2023/09/18 12:12:14;;;;;;;4.47;3.35;;;22.40;99.90;;;;;;4985958;28;94740;-37
2023/09/18 12:14:42;;;;;;;2.83;2.63;;;22.50;99.90;;;;;;4983910;28;95295;-33
2023/09/18 12:17:08;;;;;;;4.47;3.20;;;22.60;99.90;;;;;;4992340;28;94539;-37
2023/09/18 12:19:35;;;;;;;4.07;3.22;;;22.90;99.90;;;;;;4995909;28;94934;-33
2023/09/18 12:22:02;;;;;;;5.50;3.55;;;22.80;99.90;;;;;;4995203;28;94476;-33
2023/09/18 12:24:27;;;;;;;3.60;3.30;;;22.70;99.90;;;;;;4994196;28;95119;-34
2023/09/18 12:26:54;;;;;;;8.30;3.90;;;22.40;99.90;;;;;;4994982;28;95471;-35
2023/09/18 12:29:23;;;;;;;4.32;3.20;;;22.30;99.90;;;;;;4996617;28;94654;-36
2023/09/18 12:31:51;;;;;;;4.95;4.25;;;22.10;99.90;;;;;;4994574;28;94400;-35
2023/09/18 12:34:22;;;;;;;6.13;5.28;;;21.80;99.90;;;;;;4977061;28;94726;-37
2023/09/18 12:36:50;;;;;;;7.68;4.50;;;21.80;99.90;;;;;;4982408;28;94474;-37